sensor_id;sensor_type;location;lat;lon;timestamp;P1;durP1;ratioP1;P2;durP2;ratioP2
61915;SDS011;47868;51.326;6.550;2023-07-20T00:02:07;8.68;;;4.78;;
61915;SDS011;47868;51.326;6.550;2023-07-20T00:04:33;7.65;;;4.68;;
61915;SDS011;47868;51.326;6.550;2023-07-20T00:06:59;5.63;;;4.15;;
61915;SDS011;47868;51.326;6.550;2023-07-20T00:09:26;7.55;;;4.43;;
61915;SDS011;47868;51.326;6.550;2023-07-20T00:11:52;6.35;;;4.30;;
61915;SDS011;47868;51.326;6.550;2023-07-20T00:14:18;9.05;;;3.97;;
61915;SDS011;47868;51.326;6.550;2023-07-20T00:16:45;5.07;;;4.10;;
61915;SDS011;47868;51.326;6.550;2023-07-20T00:19:17;7.28;;;4.93;;
61915;SDS011;47868;51.326;6.550;2023-07-20T00:21:43;6.78;;;4.40;;
61915;SDS011;47868;51.326;6.550;2023-07-20T00:24:09;4.53;;;3.88;;
61915;SDS011;47868;51.326;6.550;2023-07-20T00:26:35;5.78;;;4.22;;
61915;SDS011;47868;51.326;6.550;2023-07-20T00:29:01;4.65;;;4.13;;
61915;SDS011;47868;51.326;6.550;2023-07-20T00:31:27;7.47;;;4.25;;
61915;SDS011;47868;51.326;6.550;2023-07-20T00:33:54;5.82;;;4.30;;
61915;SDS011;47868;51.326;6.550;2023-07-20T00:36:20;6.00;;;4.43;;
61915;SDS011;47868;51.326;6.550;2023-07-20T00:38:46;4.97;;;4.22;;
61915;SDS011;47868;51.326;6.550;2023-07-20T00:41:12;5.50;;;4.70;;
61915;SDS011;47868;51.326;6.550;2023-07-20T00:43:38;7.22;;;4.80;;
61915;SDS011;47868;51.326;6.550;2023-07-20T00:46:04;8.98;;;4.90;;
61915;SDS011;47868;51.326;6.550;2023-07-20T00:48:31;5.13;;;4.50;;
61915;SDS011;47868;51.326;6.550;2023-07-20T00:50:58;7.95;;;5.10;;
61915;SDS011;47868;51.326;6.550;2023-07-20T00:53:24;6.85;;;4.75;;
61915;SDS011;47868;51.326;6.550;2023-07-20T00:55:50;5.93;;;4.80;;
61915;SDS011;47868;51.326;6.550;2023-07-20T00:58:16;8.13;;;5.53;;
61915;SDS011;47868;51.326;6.550;2023-07-20T01:00:42;5.57;;;4.95;;
61915;SDS011;47868;51.326;6.550;2023-07-20T01:03:08;7.07;;;5.22;;
61915;SDS011;47868;51.326;6.550;2023-07-20T01:08:30;6.95;;;5.40;;
61915;SDS011;47868;51.326;6.550;2023-07-20T01:10:59;9.02;;;5.38;;
61915;SDS011;47868;51.326;6.550;2023-07-20T01:13:29;7.63;;;5.70;;
61915;SDS011;47868;51.326;6.550;2023-07-20T01:16:01;5.38;;;4.78;;
61915;SDS011;47868;51.326;6.550;2023-07-20T01:18:27;6.40;;;5.80;;
61915;SDS011;47868;51.326;6.550;2023-07-20T01:21:03;7.22;;;5.30;;
61915;SDS011;47868;51.326;6.550;2023-07-20T01:26:02;7.25;;;5.22;;
61915;SDS011;47868;51.326;6.550;2023-07-20T01:33:50;10.25;;;6.20;;
61915;SDS011;47868;51.326;6.550;2023-07-20T01:36:19;7.88;;;5.60;;
61915;SDS011;47868;51.326;6.550;2023-07-20T01:38:45;6.63;;;5.88;;
61915;SDS011;47868;51.326;6.550;2023-07-20T01:41:12;11.10;;;5.90;;
61915;SDS011;47868;51.326;6.550;2023-07-20T01:43:38;10.90;;;6.07;;
61915;SDS011;47868;51.326;6.550;2023-07-20T01:46:04;6.85;;;5.68;;
61915;SDS011;47868;51.326;6.550;2023-07-20T01:48:30;10.13;;;5.80;;
61915;SDS011;47868;51.326;6.550;2023-07-20T01:50:57;8.68;;;5.45;;
61915;SDS011;47868;51.326;6.550;2023-07-20T01:53:23;8.10;;;5.43;;
61915;SDS011;47868;51.326;6.550;2023-07-20T01:55:49;8.52;;;5.78;;
61915;SDS011;47868;51.326;6.550;2023-07-20T01:58:15;10.50;;;6.45;;
61915;SDS011;47868;51.326;6.550;2023-07-20T02:00:41;8.73;;;5.95;;
61915;SDS011;47868;51.326;6.550;2023-07-20T02:03:07;7.43;;;5.30;;
61915;SDS011;47868;51.326;6.550;2023-07-20T02:05:33;6.93;;;5.68;;
61915;SDS011;47868;51.326;6.550;2023-07-20T02:07:59;11.15;;;6.30;;
61915;SDS011;47868;51.326;6.550;2023-07-20T02:10:25;8.68;;;5.65;;
61915;SDS011;47868;51.326;6.550;2023-07-20T02:12:51;12.10;;;6.28;;
61915;SDS011;47868;51.326;6.550;2023-07-20T02:15:17;7.38;;;5.32;;
61915;SDS011;47868;51.326;6.550;2023-07-20T02:17:44;8.32;;;5.65;;
61915;SDS011;47868;51.326;6.550;2023-07-20T02:20:10;9.15;;;5.63;;
61915;SDS011;47868;51.326;6.550;2023-07-20T02:22:37;5.30;;;4.80;;
61915;SDS011;47868;51.326;6.550;2023-07-20T02:25:04;6.95;;;5.22;;
61915;SDS011;47868;51.326;6.550;2023-07-20T02:27:30;7.53;;;5.65;;
61915;SDS011;47868;51.326;6.550;2023-07-20T02:29:56;7.88;;;5.35;;
61915;SDS011;47868;51.326;6.550;2023-07-20T02:32:22;7.50;;;5.63;;
61915;SDS011;47868;51.326;6.550;2023-07-20T02:34:48;8.20;;;6.20;;
61915;SDS011;47868;51.326;6.550;2023-07-20T02:37:15;8.68;;;5.70;;
61915;SDS011;47868;51.326;6.550;2023-07-20T02:39:42;9.35;;;5.88;;
61915;SDS011;47868;51.326;6.550;2023-07-20T02:42:08;7.63;;;5.00;;
61915;SDS011;47868;51.326;6.550;2023-07-20T02:44:34;8.13;;;5.63;;
61915;SDS011;47868;51.326;6.550;2023-07-20T02:47:00;11.90;;;5.68;;
61915;SDS011;47868;51.326;6.550;2023-07-20T02:49:26;9.20;;;5.65;;
61915;SDS011;47868;51.326;6.550;2023-07-20T02:51:52;11.63;;;6.05;;
61915;SDS011;47868;51.326;6.550;2023-07-20T02:54:19;6.78;;;5.25;;
61915;SDS011;47868;51.326;6.550;2023-07-20T02:56:45;7.35;;;5.53;;
61915;SDS011;47868;51.326;6.550;2023-07-20T02:59:11;7.18;;;5.43;;
61915;SDS011;47868;51.326;6.550;2023-07-20T03:01:37;10.00;;;5.88;;
61915;SDS011;47868;51.326;6.550;2023-07-20T03:04:03;7.38;;;5.35;;
61915;SDS011;47868;51.326;6.550;2023-07-20T03:06:30;7.82;;;5.45;;
61915;SDS011;47868;51.326;6.550;2023-07-20T03:08:56;6.18;;;5.38;;
61915;SDS011;47868;51.326;6.550;2023-07-20T03:11:23;9.65;;;5.25;;
61915;SDS011;47868;51.326;6.550;2023-07-20T03:13:49;9.77;;;6.10;;
61915;SDS011;47868;51.326;6.550;2023-07-20T03:16:17;9.13;;;5.22;;
61915;SDS011;47868;51.326;6.550;2023-07-20T03:18:43;8.82;;;5.80;;
61915;SDS011;47868;51.326;6.550;2023-07-20T03:21:10;9.85;;;6.40;;
61915;SDS011;47868;51.326;6.550;2023-07-20T03:23:36;7.53;;;5.60;;
61915;SDS011;47868;51.326;6.550;2023-07-20T03:26:03;11.27;;;6.53;;
61915;SDS011;47868;51.326;6.550;2023-07-20T03:28:29;10.35;;;6.15;;
61915;SDS011;47868;51.326;6.550;2023-07-20T03:30:55;14.57;;;7.60;;
61915;SDS011;47868;51.326;6.550;2023-07-20T03:33:25;10.65;;;6.55;;
61915;SDS011;47868;51.326;6.550;2023-07-20T03:35:51;10.75;;;8.02;;
61915;SDS011;47868;51.326;6.550;2023-07-20T03:38:18;11.05;;;7.78;;
61915;SDS011;47868;51.326;6.550;2023-07-20T03:40:53;9.82;;;7.00;;
61915;SDS011;47868;51.326;6.550;2023-07-20T03:43:20;15.40;;;8.10;;
61915;SDS011;47868;51.326;6.550;2023-07-20T03:45:46;11.63;;;8.00;;
61915;SDS011;47868;51.326;6.550;2023-07-20T03:48:16;13.55;;;8.02;;
61915;SDS011;47868;51.326;6.550;2023-07-20T03:50:45;9.10;;;7.40;;
61915;SDS011;47868;51.326;6.550;2023-07-20T03:53:12;12.60;;;8.35;;
61915;SDS011;47868;51.326;6.550;2023-07-20T03:55:38;9.20;;;7.68;;
61915;SDS011;47868;51.326;6.550;2023-07-20T03:58:05;15.68;;;8.43;;
61915;SDS011;47868;51.326;6.550;2023-07-20T04:00:31;11.93;;;8.75;;
61915;SDS011;47868;51.326;6.550;2023-07-20T04:02:57;12.27;;;8.98;;
61915;SDS011;47868;51.326;6.550;2023-07-20T04:05:24;10.85;;;8.60;;
61915;SDS011;47868;51.326;6.550;2023-07-20T04:07:50;9.38;;;7.78;;
61915;SDS011;47868;51.326;6.550;2023-07-20T04:10:17;15.05;;;9.70;;
61915;SDS011;47868;51.326;6.550;2023-07-20T04:12:43;13.50;;;9.40;;
61915;SDS011;47868;51.326;6.550;2023-07-20T04:15:09;10.77;;;8.63;;
61915;SDS011;47868;51.326;6.550;2023-07-20T04:17:36;14.68;;;9.40;;
61915;SDS011;47868;51.326;6.550;2023-07-20T04:20:02;14.88;;;9.15;;
61915;SDS011;47868;51.326;6.550;2023-07-20T04:22:29;12.77;;;9.07;;
61915;SDS011;47868;51.326;6.550;2023-07-20T04:24:55;14.20;;;9.80;;
61915;SDS011;47868;51.326;6.550;2023-07-20T04:27:21;13.50;;;9.75;;
61915;SDS011;47868;51.326;6.550;2023-07-20T04:29:47;14.40;;;10.27;;
61915;SDS011;47868;51.326;6.550;2023-07-20T04:32:13;15.68;;;11.18;;
61915;SDS011;47868;51.326;6.550;2023-07-20T04:34:39;14.15;;;10.57;;
61915;SDS011;47868;51.326;6.550;2023-07-20T04:37:05;14.25;;;10.98;;
61915;SDS011;47868;51.326;6.550;2023-07-20T04:39:31;15.73;;;11.80;;
61915;SDS011;47868;51.326;6.550;2023-07-20T04:41:57;15.65;;;11.90;;
61915;SDS011;47868;51.326;6.550;2023-07-20T04:44:23;14.65;;;12.20;;
61915;SDS011;47868;51.326;6.550;2023-07-20T04:46:49;13.20;;;11.88;;
61915;SDS011;47868;51.326;6.550;2023-07-20T04:49:15;15.02;;;11.85;;
61915;SDS011;47868;51.326;6.550;2023-07-20T04:51:41;18.65;;;12.63;;
61915;SDS011;47868;51.326;6.550;2023-07-20T04:54:07;13.98;;;11.82;;
61915;SDS011;47868;51.326;6.550;2023-07-20T04:56:33;14.32;;;11.60;;
61915;SDS011;47868;51.326;6.550;2023-07-20T04:58:59;16.17;;;13.00;;
61915;SDS011;47868;51.326;6.550;2023-07-20T05:01:25;16.20;;;12.48;;
61915;SDS011;47868;51.326;6.550;2023-07-20T05:03:52;21.17;;;12.52;;
61915;SDS011;47868;51.326;6.550;2023-07-20T05:06:18;17.52;;;13.57;;
61915;SDS011;47868;51.326;6.550;2023-07-20T05:08:44;18.25;;;12.27;;
61915;SDS011;47868;51.326;6.550;2023-07-20T05:11:10;14.23;;;12.82;;
61915;SDS011;47868;51.326;6.550;2023-07-20T05:13:37;17.73;;;12.48;;
61915;SDS011;47868;51.326;6.550;2023-07-20T05:16:03;13.63;;;12.15;;
61915;SDS011;47868;51.326;6.550;2023-07-20T05:18:29;13.20;;;11.80;;
61915;SDS011;47868;51.326;6.550;2023-07-20T05:20:56;15.57;;;12.23;;
61915;SDS011;47868;51.326;6.550;2023-07-20T05:23:22;17.35;;;13.25;;
61915;SDS011;47868;51.326;6.550;2023-07-20T05:25:54;14.45;;;12.55;;
61915;SDS011;47868;51.326;6.550;2023-07-20T05:28:21;18.33;;;12.15;;
61915;SDS011;47868;51.326;6.550;2023-07-20T05:30:47;14.40;;;11.60;;
61915;SDS011;47868;51.326;6.550;2023-07-20T05:33:13;13.55;;;11.52;;
61915;SDS011;47868;51.326;6.550;2023-07-20T05:35:39;14.88;;;11.93;;
61915;SDS011;47868;51.326;6.550;2023-07-20T05:38:05;14.68;;;11.80;;
61915;SDS011;47868;51.326;6.550;2023-07-20T05:40:32;14.65;;;11.77;;
61915;SDS011;47868;51.326;6.550;2023-07-20T05:42:58;16.05;;;11.98;;
61915;SDS011;47868;51.326;6.550;2023-07-20T05:45:25;12.57;;;11.13;;
61915;SDS011;47868;51.326;6.550;2023-07-20T05:47:51;11.48;;;9.45;;
61915;SDS011;47868;51.326;6.550;2023-07-20T05:50:17;9.77;;;8.70;;
61915;SDS011;47868;51.326;6.550;2023-07-20T05:52:43;10.43;;;8.57;;
61915;SDS011;47868;51.326;6.550;2023-07-20T05:55:09;11.32;;;8.93;;
61915;SDS011;47868;51.326;6.550;2023-07-20T05:57:35;11.32;;;9.00;;
61915;SDS011;47868;51.326;6.550;2023-07-20T06:00:05;8.93;;;8.00;;
61915;SDS011;47868;51.326;6.550;2023-07-20T06:02:32;11.10;;;8.05;;
61915;SDS011;47868;51.326;6.550;2023-07-20T06:04:58;9.25;;;8.35;;
61915;SDS011;47868;51.326;6.550;2023-07-20T06:07:24;9.48;;;7.90;;
61915;SDS011;47868;51.326;6.550;2023-07-20T06:09:50;8.32;;;7.38;;
61915;SDS011;47868;51.326;6.550;2023-07-20T06:12:16;7.63;;;6.85;;
61915;SDS011;47868;51.326;6.550;2023-07-20T06:14:42;9.18;;;7.10;;
61915;SDS011;47868;51.326;6.550;2023-07-20T06:17:08;7.93;;;7.13;;
61915;SDS011;47868;51.326;6.550;2023-07-20T06:19:34;10.07;;;6.25;;
61915;SDS011;47868;51.326;6.550;2023-07-20T06:22:01;7.78;;;6.03;;
61915;SDS011;47868;51.326;6.550;2023-07-20T06:24:27;5.50;;;5.00;;
61915;SDS011;47868;51.326;6.550;2023-07-20T06:26:53;6.35;;;5.75;;
61915;SDS011;47868;51.326;6.550;2023-07-20T06:29:19;7.30;;;5.78;;
61915;SDS011;47868;51.326;6.550;2023-07-20T06:31:45;7.80;;;4.78;;
61915;SDS011;47868;51.326;6.550;2023-07-20T06:34:11;4.82;;;4.38;;
61915;SDS011;47868;51.326;6.550;2023-07-20T06:36:37;3.33;;;3.03;;
61915;SDS011;47868;51.326;6.550;2023-07-20T06:39:03;2.88;;;2.67;;
61915;SDS011;47868;51.326;6.550;2023-07-20T06:41:29;4.45;;;2.53;;
61915;SDS011;47868;51.326;6.550;2023-07-20T06:43:55;2.50;;;2.25;;
61915;SDS011;47868;51.326;6.550;2023-07-20T06:46:24;8.68;;;3.13;;
61915;SDS011;47868;51.326;6.550;2023-07-20T06:48:50;7.18;;;2.78;;
61915;SDS011;47868;51.326;6.550;2023-07-20T06:51:16;3.60;;;2.70;;
61915;SDS011;47868;51.326;6.550;2023-07-20T06:53:43;6.05;;;2.63;;
61915;SDS011;47868;51.326;6.550;2023-07-20T06:56:09;3.17;;;2.90;;
61915;SDS011;47868;51.326;6.550;2023-07-20T06:58:36;4.60;;;4.20;;
61915;SDS011;47868;51.326;6.550;2023-07-20T07:01:05;5.85;;;4.47;;
61915;SDS011;47868;51.326;6.550;2023-07-20T07:03:32;6.43;;;4.45;;
61915;SDS011;47868;51.326;6.550;2023-07-20T07:05:58;7.45;;;4.93;;
61915;SDS011;47868;51.326;6.550;2023-07-20T07:08:24;5.03;;;4.57;;
61915;SDS011;47868;51.326;6.550;2023-07-20T07:10:50;6.93;;;4.78;;
61915;SDS011;47868;51.326;6.550;2023-07-20T07:13:16;6.50;;;4.38;;
61915;SDS011;47868;51.326;6.550;2023-07-20T07:15:42;4.53;;;4.10;;
61915;SDS011;47868;51.326;6.550;2023-07-20T07:18:08;5.13;;;3.55;;
61915;SDS011;47868;51.326;6.550;2023-07-20T07:20:34;5.25;;;3.28;;
61915;SDS011;47868;51.326;6.550;2023-07-20T07:23:01;3.58;;;2.90;;
61915;SDS011;47868;51.326;6.550;2023-07-20T07:25:27;3.20;;;2.90;;
61915;SDS011;47868;51.326;6.550;2023-07-20T07:27:53;3.65;;;2.85;;
61915;SDS011;47868;51.326;6.550;2023-07-20T07:30:21;3.10;;;2.70;;
61915;SDS011;47868;51.326;6.550;2023-07-20T07:32:47;2.50;;;2.30;;
61915;SDS011;47868;51.326;6.550;2023-07-20T07:35:13;7.47;;;2.90;;
61915;SDS011;47868;51.326;6.550;2023-07-20T07:37:39;4.63;;;2.97;;
61915;SDS011;47868;51.326;6.550;2023-07-20T07:40:05;2.85;;;2.65;;
61915;SDS011;47868;51.326;6.550;2023-07-20T07:42:33;2.58;;;2.33;;
61915;SDS011;47868;51.326;6.550;2023-07-20T07:44:59;3.08;;;2.42;;
61915;SDS011;47868;51.326;6.550;2023-07-20T07:47:25;5.20;;;2.47;;
61915;SDS011;47868;51.326;6.550;2023-07-20T07:49:51;3.33;;;2.05;;
61915;SDS011;47868;51.326;6.550;2023-07-20T07:52:17;2.78;;;2.00;;
61915;SDS011;47868;51.326;6.550;2023-07-20T07:54:43;2.58;;;2.28;;
61915;SDS011;47868;51.326;6.550;2023-07-20T07:57:09;2.25;;;1.90;;
61915;SDS011;47868;51.326;6.550;2023-07-20T07:59:35;5.10;;;2.28;;
61915;SDS011;47868;51.326;6.550;2023-07-20T08:02:04;2.13;;;1.92;;
61915;SDS011;47868;51.326;6.550;2023-07-20T08:04:30;1.95;;;1.45;;
61915;SDS011;47868;51.326;6.550;2023-07-20T08:06:56;0.98;;;0.98;;
61915;SDS011;47868;51.326;6.550;2023-07-20T08:09:22;1.15;;;0.85;;
61915;SDS011;47868;51.326;6.550;2023-07-20T08:11:48;1.20;;;1.10;;
61915;SDS011;47868;51.326;6.550;2023-07-20T08:14:15;1.95;;;1.38;;
61915;SDS011;47868;51.326;6.550;2023-07-20T08:16:41;2.50;;;1.27;;
61915;SDS011;47868;51.326;6.550;2023-07-20T08:19:08;1.48;;;1.38;;
61915;SDS011;47868;51.326;6.550;2023-07-20T08:21:34;2.75;;;1.48;;
61915;SDS011;47868;51.326;6.550;2023-07-20T08:24:00;3.97;;;1.88;;
61915;SDS011;47868;51.326;6.550;2023-07-20T08:26:26;2.50;;;1.70;;
61915;SDS011;47868;51.326;6.550;2023-07-20T08:28:52;1.40;;;1.27;;
61915;SDS011;47868;51.326;6.550;2023-07-20T08:31:18;3.63;;;1.38;;
61915;SDS011;47868;51.326;6.550;2023-07-20T08:33:45;1.77;;;1.40;;
61915;SDS011;47868;51.326;6.550;2023-07-20T08:36:11;3.03;;;1.50;;
61915;SDS011;47868;51.326;6.550;2023-07-20T08:38:37;2.72;;;1.42;;
61915;SDS011;47868;51.326;6.550;2023-07-20T08:41:03;3.00;;;1.30;;
61915;SDS011;47868;51.326;6.550;2023-07-20T08:43:29;1.33;;;0.90;;
61915;SDS011;47868;51.326;6.550;2023-07-20T08:45:56;0.80;;;0.80;;
61915;SDS011;47868;51.326;6.550;2023-07-20T08:48:22;2.47;;;0.70;;
61915;SDS011;47868;51.326;6.550;2023-07-20T08:50:50;0.98;;;0.80;;
61915;SDS011;47868;51.326;6.550;2023-07-20T08:53:17;3.38;;;0.90;;
61915;SDS011;47868;51.326;6.550;2023-07-20T08:55:46;1.60;;;0.80;;
61915;SDS011;47868;51.326;6.550;2023-07-20T08:58:14;1.13;;;1.02;;
61915;SDS011;47868;51.326;6.550;2023-07-20T09:00:41;0.85;;;0.80;;
61915;SDS011;47868;51.326;6.550;2023-07-20T09:03:07;5.72;;;1.08;;
61915;SDS011;47868;51.326;6.550;2023-07-20T09:05:34;1.50;;;1.40;;
61915;SDS011;47868;51.326;6.550;2023-07-20T09:08:01;1.42;;;1.20;;
61915;SDS011;47868;51.326;6.550;2023-07-20T09:10:30;2.17;;;1.27;;
61915;SDS011;47868;51.326;6.550;2023-07-20T09:12:56;4.57;;;1.10;;
61915;SDS011;47868;51.326;6.550;2023-07-20T09:15:22;2.88;;;1.20;;
61915;SDS011;47868;51.326;6.550;2023-07-20T09:17:49;1.90;;;1.33;;
61915;SDS011;47868;51.326;6.550;2023-07-20T09:20:16;1.42;;;1.00;;
61915;SDS011;47868;51.326;6.550;2023-07-20T09:22:43;2.08;;;1.10;;
61915;SDS011;47868;51.326;6.550;2023-07-20T09:25:13;1.52;;;1.10;;
61915;SDS011;47868;51.326;6.550;2023-07-20T09:27:40;1.73;;;1.20;;
61915;SDS011;47868;51.326;6.550;2023-07-20T09:30:07;1.52;;;1.13;;
61915;SDS011;47868;51.326;6.550;2023-07-20T09:32:46;1.48;;;1.27;;
61915;SDS011;47868;51.326;6.550;2023-07-20T09:35:13;4.60;;;1.20;;
61915;SDS011;47868;51.326;6.550;2023-07-20T09:37:40;2.95;;;1.45;;
61915;SDS011;47868;51.326;6.550;2023-07-20T09:40:06;2.20;;;1.30;;
61915;SDS011;47868;51.326;6.550;2023-07-20T09:42:35;2.22;;;1.52;;
61915;SDS011;47868;51.326;6.550;2023-07-20T09:45:03;0.80;;;0.80;;
61915;SDS011;47868;51.326;6.550;2023-07-20T09:47:29;1.33;;;1.10;;
61915;SDS011;47868;51.326;6.550;2023-07-20T09:49:59;2.25;;;1.10;;
61915;SDS011;47868;51.326;6.550;2023-07-20T09:52:26;2.97;;;1.00;;
61915;SDS011;47868;51.326;6.550;2023-07-20T09:54:52;2.67;;;1.42;;
61915;SDS011;47868;51.326;6.550;2023-07-20T09:57:18;1.38;;;1.25;;
61915;SDS011;47868;51.326;6.550;2023-07-20T09:59:45;2.00;;;0.93;;
61915;SDS011;47868;51.326;6.550;2023-07-20T10:02:13;1.13;;;1.00;;
61915;SDS011;47868;51.326;6.550;2023-07-20T10:04:44;2.72;;;1.40;;
61915;SDS011;47868;51.326;6.550;2023-07-20T10:07:10;4.93;;;4.38;;
61915;SDS011;47868;51.326;6.550;2023-07-20T10:09:38;2.78;;;2.00;;
61915;SDS011;47868;51.326;6.550;2023-07-20T10:12:05;1.67;;;1.23;;
61915;SDS011;47868;51.326;6.550;2023-07-20T10:14:32;1.77;;;1.20;;
61915;SDS011;47868;51.326;6.550;2023-07-20T10:17:00;2.35;;;1.25;;
61915;SDS011;47868;51.326;6.550;2023-07-20T10:19:29;1.52;;;1.42;;
61915;SDS011;47868;51.326;6.550;2023-07-20T10:22:10;2.03;;;1.02;;
61915;SDS011;47868;51.326;6.550;2023-07-20T10:24:38;2.83;;;1.42;;
61915;SDS011;47868;51.326;6.550;2023-07-20T10:27:04;1.13;;;1.10;;
61915;SDS011;47868;51.326;6.550;2023-07-20T10:29:30;0.95;;;0.90;;
61915;SDS011;47868;51.326;6.550;2023-07-20T10:31:57;0.90;;;0.90;;
61915;SDS011;47868;51.326;6.550;2023-07-20T10:34:23;0.85;;;0.85;;
61915;SDS011;47868;51.326;6.550;2023-07-20T10:36:50;1.05;;;0.93;;
61915;SDS011;47868;51.326;6.550;2023-07-20T10:41:49;1.20;;;1.10;;
61915;SDS011;47868;51.326;6.550;2023-07-20T10:44:19;1.98;;;1.10;;
61915;SDS011;47868;51.326;6.550;2023-07-20T10:46:45;1.00;;;1.00;;
61915;SDS011;47868;51.326;6.550;2023-07-20T10:49:12;2.35;;;1.00;;
61915;SDS011;47868;51.326;6.550;2023-07-20T10:51:44;3.85;;;1.05;;
61915;SDS011;47868;51.326;6.550;2023-07-20T10:56:44;1.40;;;1.30;;
61915;SDS011;47868;51.326;6.550;2023-07-20T11:01:48;3.05;;;1.17;;
61915;SDS011;47868;51.326;6.550;2023-07-20T11:04:15;2.05;;;0.90;;
61915;SDS011;47868;51.326;6.550;2023-07-20T11:06:46;1.10;;;1.00;;
61915;SDS011;47868;51.326;6.550;2023-07-20T11:09:12;0.90;;;0.90;;
61915;SDS011;47868;51.326;6.550;2023-07-20T11:11:42;0.90;;;0.88;;
61915;SDS011;47868;51.326;6.550;2023-07-20T11:14:09;1.60;;;1.10;;
61915;SDS011;47868;51.326;6.550;2023-07-20T11:16:37;1.85;;;1.00;;
61915;SDS011;47868;51.326;6.550;2023-07-20T11:19:04;1.17;;;0.95;;
61915;SDS011;47868;51.326;6.550;2023-07-20T11:21:35;1.63;;;1.00;;
61915;SDS011;47868;51.326;6.550;2023-07-20T11:24:02;0.88;;;0.88;;
61915;SDS011;47868;51.326;6.550;2023-07-20T11:26:28;3.17;;;1.08;;
61915;SDS011;47868;51.326;6.550;2023-07-20T11:28:54;1.92;;;1.05;;
61915;SDS011;47868;51.326;6.550;2023-07-20T11:31:20;1.08;;;0.98;;
61915;SDS011;47868;51.326;6.550;2023-07-20T11:33:46;3.42;;;1.50;;
61915;SDS011;47868;51.326;6.550;2023-07-20T11:36:13;0.82;;;0.80;;
61915;SDS011;47868;51.326;6.550;2023-07-20T11:38:42;1.85;;;0.95;;
61915;SDS011;47868;51.326;6.550;2023-07-20T11:41:08;0.73;;;0.73;;
61915;SDS011;47868;51.326;6.550;2023-07-20T11:43:35;1.15;;;1.02;;
61915;SDS011;47868;51.326;6.550;2023-07-20T11:46:03;1.98;;;0.70;;
61915;SDS011;47868;51.326;6.550;2023-07-20T11:48:30;3.42;;;1.00;;
61915;SDS011;47868;51.326;6.550;2023-07-20T11:50:56;4.45;;;1.00;;
61915;SDS011;47868;51.326;6.550;2023-07-20T11:53:22;2.10;;;1.02;;
61915;SDS011;47868;51.326;6.550;2023-07-20T11:55:50;1.35;;;1.05;;
61915;SDS011;47868;51.326;6.550;2023-07-20T11:58:17;1.50;;;0.70;;
61915;SDS011;47868;51.326;6.550;2023-07-20T12:00:44;0.85;;;0.80;;
61915;SDS011;47868;51.326;6.550;2023-07-20T12:03:11;1.27;;;1.00;;
61915;SDS011;47868;51.326;6.550;2023-07-20T12:05:38;2.42;;;1.05;;
61915;SDS011;47868;51.326;6.550;2023-07-20T12:08:05;1.27;;;1.00;;
61915;SDS011;47868;51.326;6.550;2023-07-20T12:10:31;1.05;;;1.05;;
61915;SDS011;47868;51.326;6.550;2023-07-20T12:13:01;2.13;;;1.10;;
61915;SDS011;47868;51.326;6.550;2023-07-20T12:15:28;0.85;;;0.85;;
61915;SDS011;47868;51.326;6.550;2023-07-20T12:17:59;3.13;;;1.00;;
61915;SDS011;47868;51.326;6.550;2023-07-20T12:23:01;1.13;;;1.02;;
61915;SDS011;47868;51.326;6.550;2023-07-20T12:28:00;2.13;;;1.08;;
61915;SDS011;47868;51.326;6.550;2023-07-20T12:30:27;1.17;;;1.08;;
61915;SDS011;47868;51.326;6.550;2023-07-20T12:32:53;1.13;;;1.08;;
61915;SDS011;47868;51.326;6.550;2023-07-20T12:35:20;1.75;;;1.00;;
61915;SDS011;47868;51.326;6.550;2023-07-20T12:37:46;4.78;;;0.95;;
61915;SDS011;47868;51.326;6.550;2023-07-20T12:40:14;1.52;;;0.90;;
61915;SDS011;47868;51.326;6.550;2023-07-20T12:42:40;1.95;;;1.10;;
61915;SDS011;47868;51.326;6.550;2023-07-20T12:45:07;1.27;;;1.05;;
61915;SDS011;47868;51.326;6.550;2023-07-20T12:47:33;3.40;;;1.00;;
61915;SDS011;47868;51.326;6.550;2023-07-20T12:49:59;2.17;;;1.27;;
61915;SDS011;47868;51.326;6.550;2023-07-20T12:52:25;1.10;;;0.90;;
61915;SDS011;47868;51.326;6.550;2023-07-20T12:54:51;1.38;;;1.13;;
61915;SDS011;47868;51.326;6.550;2023-07-20T12:57:17;1.10;;;1.05;;
61915;SDS011;47868;51.326;6.550;2023-07-20T12:59:43;1.42;;;0.90;;
61915;SDS011;47868;51.326;6.550;2023-07-20T13:02:09;1.92;;;1.00;;
61915;SDS011;47868;51.326;6.550;2023-07-20T13:04:35;1.95;;;1.10;;
61915;SDS011;47868;51.326;6.550;2023-07-20T13:07:01;3.05;;;1.20;;
61915;SDS011;47868;51.326;6.550;2023-07-20T13:09:27;1.35;;;1.20;;
61915;SDS011;47868;51.326;6.550;2023-07-20T13:11:54;1.67;;;0.80;;
61915;SDS011;47868;51.326;6.550;2023-07-20T13:14:22;1.50;;;1.40;;
61915;SDS011;47868;51.326;6.550;2023-07-20T13:16:48;1.45;;;1.30;;
61915;SDS011;47868;51.326;6.550;2023-07-20T13:19:14;1.02;;;1.00;;
61915;SDS011;47868;51.326;6.550;2023-07-20T13:21:40;3.80;;;2.03;;
61915;SDS011;47868;51.326;6.550;2023-07-20T13:24:06;2.35;;;1.90;;
61915;SDS011;47868;51.326;6.550;2023-07-20T13:26:33;1.50;;;1.10;;
61915;SDS011;47868;51.326;6.550;2023-07-20T13:28:59;4.70;;;2.85;;
61915;SDS011;47868;51.326;6.550;2023-07-20T13:31:25;2.58;;;1.52;;
61915;SDS011;47868;51.326;6.550;2023-07-20T13:33:51;1.85;;;1.10;;
61915;SDS011;47868;51.326;6.550;2023-07-20T13:36:18;1.42;;;1.27;;
61915;SDS011;47868;51.326;6.550;2023-07-20T13:38:45;4.20;;;1.50;;
61915;SDS011;47868;51.326;6.550;2023-07-20T13:41:13;1.08;;;1.00;;
61915;SDS011;47868;51.326;6.550;2023-07-20T13:43:40;1.90;;;1.38;;
61915;SDS011;47868;51.326;6.550;2023-07-20T13:46:06;1.90;;;1.08;;
61915;SDS011;47868;51.326;6.550;2023-07-20T13:48:32;2.10;;;1.20;;
61915;SDS011;47868;51.326;6.550;2023-07-20T13:50:58;1.55;;;1.10;;
61915;SDS011;47868;51.326;6.550;2023-07-20T13:53:24;3.13;;;1.20;;
61915;SDS011;47868;51.326;6.550;2023-07-20T13:55:52;1.10;;;1.00;;
61915;SDS011;47868;51.326;6.550;2023-07-20T13:58:18;3.20;;;1.15;;
61915;SDS011;47868;51.326;6.550;2023-07-20T14:00:44;2.55;;;1.58;;
61915;SDS011;47868;51.326;6.550;2023-07-20T14:03:10;4.43;;;2.10;;
61915;SDS011;47868;51.326;6.550;2023-07-20T14:05:36;4.07;;;2.50;;
61915;SDS011;47868;51.326;6.550;2023-07-20T14:08:02;14.05;;;6.07;;
61915;SDS011;47868;51.326;6.550;2023-07-20T14:10:28;2.10;;;1.90;;
61915;SDS011;47868;51.326;6.550;2023-07-20T14:12:54;3.47;;;2.40;;
61915;SDS011;47868;51.326;6.550;2023-07-20T14:15:20;3.10;;;1.52;;
61915;SDS011;47868;51.326;6.550;2023-07-20T14:17:46;1.40;;;1.30;;
61915;SDS011;47868;51.326;6.550;2023-07-20T14:20:12;1.60;;;1.25;;
61915;SDS011;47868;51.326;6.550;2023-07-20T14:22:38;3.65;;;0.95;;
61915;SDS011;47868;51.326;6.550;2023-07-20T14:25:06;2.08;;;1.30;;
61915;SDS011;47868;51.326;6.550;2023-07-20T14:27:33;1.55;;;0.98;;
61915;SDS011;47868;51.326;6.550;2023-07-20T14:29:59;5.72;;;1.48;;
61915;SDS011;47868;51.326;6.550;2023-07-20T14:32:25;1.08;;;0.90;;
61915;SDS011;47868;51.326;6.550;2023-07-20T14:34:51;2.67;;;1.13;;
61915;SDS011;47868;51.326;6.550;2023-07-20T14:37:17;5.78;;;1.10;;
61915;SDS011;47868;51.326;6.550;2023-07-20T14:39:43;3.03;;;1.10;;
61915;SDS011;47868;51.326;6.550;2023-07-20T14:42:09;0.88;;;0.88;;
61915;SDS011;47868;51.326;6.550;2023-07-20T14:44:35;1.85;;;1.05;;
61915;SDS011;47868;51.326;6.550;2023-07-20T14:47:01;1.75;;;0.90;;
61915;SDS011;47868;51.326;6.550;2023-07-20T14:49:27;1.15;;;1.05;;
61915;SDS011;47868;51.326;6.550;2023-07-20T14:51:53;3.90;;;1.05;;
61915;SDS011;47868;51.326;6.550;2023-07-20T14:54:20;1.30;;;1.20;;
61915;SDS011;47868;51.326;6.550;2023-07-20T14:56:50;11.02;;;2.78;;
61915;SDS011;47868;51.326;6.550;2023-07-20T14:59:17;2.60;;;1.20;;
61915;SDS011;47868;51.326;6.550;2023-07-20T15:01:44;1.58;;;1.48;;
61915;SDS011;47868;51.326;6.550;2023-07-20T15:04:13;6.32;;;1.52;;